createdAt,value
2023-05-05T00:02:15.297Z,12.70
2023-05-05T00:07:17.482Z,12.80
2023-05-05T00:12:19.655Z,12.80
2023-05-05T00:17:22.219Z,12.80
2023-05-05T00:22:24.337Z,12.80
2023-05-05T00:27:26.400Z,12.70
2023-05-05T00:32:28.629Z,12.70
2023-05-05T00:37:30.797Z,12.80
2023-05-05T00:42:47.356Z,12.90
2023-05-05T00:47:54.207Z,13.00
2023-05-05T00:53:00.392Z,13.10
2023-05-05T00:58:04.276Z,13.10
2023-05-05T01:03:06.593Z,13.10
2023-05-05T01:08:36.051Z,13.10
2023-05-05T01:13:45.312Z,13.10
2023-05-05T01:18:58.460Z,13.10
2023-05-05T01:24:22.629Z,13.00
2023-05-05T01:29:43.448Z,12.90
2023-05-05T01:35:17.018Z,12.90
2023-05-05T01:40:26.816Z,12.90
2023-05-05T01:45:32.206Z,13.00
2023-05-05T01:50:36.019Z,13.00
2023-05-05T01:55:40.385Z,13.00
2023-05-05T02:00:44.157Z,13.00
2023-05-05T02:05:48.527Z,13.00
2023-05-05T02:10:52.503Z,12.90
2023-05-05T02:15:55.924Z,12.80
2023-05-05T02:20:58.082Z,12.70
2023-05-05T02:26:06.105Z,12.70
2023-05-05T02:31:10.532Z,12.60
2023-05-05T02:36:20.413Z,12.60
2023-05-05T02:41:32.960Z,12.50
2023-05-05T02:46:39.914Z,12.50
2023-05-05T02:51:42.213Z,12.50
2023-05-05T02:56:55.384Z,12.50
2023-05-05T03:02:10.195Z,12.40
2023-05-05T03:07:20.624Z,12.40
2023-05-05T03:12:30.502Z,12.40
2023-05-05T03:17:53.218Z,12.40
2023-05-05T03:22:56.483Z,12.30
2023-05-05T03:27:58.658Z,12.40
2023-05-05T03:33:01.351Z,12.50
2023-05-05T03:38:03.896Z,12.50
2023-05-05T03:43:06.012Z,12.60
2023-05-05T03:48:09.880Z,12.60
2023-05-05T03:53:13.831Z,12.60
2023-05-05T03:58:16.742Z,12.60
2023-05-05T04:03:19.308Z,12.50
2023-05-05T04:08:21.673Z,12.50
2023-05-05T04:13:24.340Z,12.40
2023-05-05T04:18:26.656Z,12.40
2023-05-05T04:23:28.859Z,12.30
2023-05-05T04:28:31.026Z,12.30
2023-05-05T04:33:33.360Z,12.30
2023-05-05T04:38:36.861Z,12.20
2023-05-05T04:43:40.082Z,12.10
2023-05-05T04:48:42.450Z,12.10
2023-05-05T04:53:44.772Z,12.10
2023-05-05T04:58:47.097Z,12.10
2023-05-05T05:03:49.749Z,12.10
2023-05-05T05:08:52.234Z,12.10
2023-05-05T05:13:54.493Z,12.10
2023-05-05T05:18:56.820Z,12.10
2023-05-05T05:23:59.342Z,12.10
2023-05-05T05:29:02.225Z,12.10
2023-05-05T05:34:04.535Z,12.30
2023-05-05T05:39:07.031Z,12.40
2023-05-05T05:44:09.521Z,12.50
2023-05-05T05:49:11.920Z,12.50
2023-05-05T05:54:14.098Z,12.50
2023-05-05T05:59:17.670Z,12.60
2023-05-05T06:04:19.977Z,12.70
2023-05-05T06:09:22.671Z,12.80
2023-05-05T06:14:25.195Z,12.90
2023-05-05T06:19:27.698Z,13.10
2023-05-05T06:24:32.050Z,13.10
2023-05-05T06:29:35.125Z,13.80
2023-05-05T06:34:37.216Z,15.20
2023-05-05T06:39:39.680Z,16.40
2023-05-05T06:44:41.852Z,17.10
2023-05-05T06:49:44.002Z,16.50
2023-05-05T06:54:46.082Z,15.40
2023-05-05T06:59:48.139Z,15.40
2023-05-05T07:04:51.077Z,15.90
2023-05-05T07:09:53.197Z,17.80
2023-05-05T07:14:56.328Z,18.10
2023-05-05T07:19:58.499Z,17.20
2023-05-05T07:25:00.824Z,16.50
2023-05-05T07:30:06.004Z,16.30
2023-05-05T07:35:11.421Z,18.30
2023-05-05T07:40:13.764Z,18.90
2023-05-05T07:45:15.988Z,18.30
2023-05-05T07:50:18.525Z,17.30
2023-05-05T07:55:20.885Z,16.40
2023-05-05T08:00:23.356Z,15.90
2023-05-05T08:05:25.982Z,15.60
2023-05-05T08:10:28.151Z,15.60
2023-05-05T08:15:30.288Z,15.80
2023-05-05T08:20:32.384Z,15.80
2023-05-05T08:25:34.583Z,16.20
2023-05-05T08:30:36.708Z,16.50
2023-05-05T08:35:38.875Z,17.20
2023-05-05T08:40:41.623Z,17.60
2023-05-05T08:45:44.645Z,17.80
2023-05-05T08:50:59.837Z,18.00
2023-05-05T08:56:04.174Z,18.40
2023-05-05T09:01:07.555Z,18.70
2023-05-05T09:06:10.240Z,19.00
2023-05-05T09:11:12.298Z,19.30
2023-05-05T09:16:14.397Z,19.40
2023-05-05T09:21:25.084Z,19.60
2023-05-05T09:26:27.336Z,19.20
2023-05-05T09:31:36.271Z,18.50
2023-05-05T09:36:49.552Z,18.60
2023-05-05T09:41:51.756Z,18.30
2023-05-05T09:46:55.532Z,17.40
2023-05-05T09:51:57.743Z,18.10
2023-05-05T09:56:59.845Z,18.30
2023-05-05T10:02:13.006Z,18.10
2023-05-05T10:07:24.754Z,19.30
2023-05-05T10:12:27.957Z,19.90
2023-05-05T10:17:37.885Z,19.10
2023-05-05T10:22:45.130Z,18.60
2023-05-05T10:27:51.416Z,18.90
2023-05-05T10:33:13.550Z,19.40
2023-05-05T10:38:24.810Z,19.40
2023-05-05T10:43:31.025Z,19.00
2023-05-05T10:48:36.256Z,19.40
2023-05-05T10:54:17.206Z,18.90
2023-05-05T10:59:38.212Z,19.40
2023-05-05T11:04:41.325Z,19.50
2023-05-05T11:10:03.670Z,19.20
2023-05-05T11:15:41.668Z,19.00
2023-05-05T11:20:45.023Z,19.00
2023-05-05T11:25:47.468Z,18.50
2023-05-05T11:30:55.927Z,17.60
2023-05-05T11:35:58.286Z,18.40
2023-05-05T11:41:12.531Z,19.00
2023-05-05T11:46:17.006Z,19.50
2023-05-05T11:51:19.294Z,19.70
2023-05-05T11:56:22.481Z,20.10
2023-05-05T12:01:24.580Z,20.40
2023-05-05T12:06:27.686Z,19.70
2023-05-05T12:11:30.126Z,19.70
2023-05-05T12:16:32.328Z,19.90
2023-05-05T12:21:35.508Z,19.30
2023-05-05T12:26:37.591Z,20.10
2023-05-05T12:31:42.755Z,20.80
2023-05-05T12:36:45.180Z,21.20
2023-05-05T12:41:47.715Z,20.70
2023-05-05T12:46:52.394Z,20.20
2023-05-05T12:51:56.365Z,20.80
2023-05-05T12:56:59.736Z,21.10
2023-05-05T13:02:02.202Z,20.80
2023-05-05T13:07:17.968Z,20.90
2023-05-05T13:12:21.732Z,21.50
2023-05-05T13:17:25.216Z,21.60
2023-05-05T13:22:27.342Z,20.90
2023-05-05T13:27:29.591Z,20.80
2023-05-05T13:32:31.767Z,21.00
2023-05-05T13:37:34.117Z,20.80
2023-05-05T13:42:36.309Z,20.20
2023-05-05T13:47:38.756Z,19.60
2023-05-05T13:52:41.824Z,19.30
2023-05-05T13:57:44.058Z,19.50
2023-05-05T14:02:46.730Z,20.00
2023-05-05T14:07:49.069Z,20.80
2023-05-05T14:12:51.776Z,20.90
2023-05-05T14:17:54.081Z,20.60
2023-05-05T14:22:57.453Z,21.10
2023-05-05T14:28:02.572Z,21.00
2023-05-05T14:33:04.970Z,21.10
2023-05-05T14:38:07.219Z,20.90
2023-05-05T14:43:09.459Z,20.60
2023-05-05T14:48:11.716Z,20.50
2023-05-05T14:53:14.174Z,20.90
2023-05-05T14:58:18.897Z,21.10
2023-05-05T15:03:21.435Z,20.40
2023-05-05T15:08:23.743Z,19.70
2023-05-05T15:13:26.127Z,19.30
2023-05-05T15:18:28.333Z,18.50
2023-05-05T15:23:30.658Z,17.80
2023-05-05T15:28:32.881Z,17.50
2023-05-05T15:33:35.021Z,17.80
2023-05-05T15:38:43.395Z,17.60
2023-05-05T15:43:45.441Z,17.50
2023-05-05T15:48:47.500Z,17.50
2023-05-05T15:53:49.630Z,17.40
2023-05-05T15:58:51.833Z,17.30
2023-05-05T16:03:54.099Z,17.30
2023-05-05T16:08:58.483Z,17.80
2023-05-05T16:14:00.667Z,18.90
2023-05-05T16:19:02.790Z,19.50
2023-05-05T16:24:05.008Z,18.60
2023-05-05T16:29:07.109Z,17.90
2023-05-05T16:34:09.261Z,18.00
2023-05-05T16:39:11.954Z,18.30
2023-05-05T16:44:14.545Z,18.20
2023-05-05T16:49:16.625Z,18.40
2023-05-05T16:54:18.778Z,17.90
2023-05-05T16:59:21.190Z,18.10
2023-05-05T17:04:26.009Z,18.80
2023-05-05T17:09:28.208Z,18.80
2023-05-05T17:14:30.582Z,19.80
2023-05-05T17:19:32.827Z,20.50
2023-05-05T17:24:34.963Z,21.00
2023-05-05T17:29:40.870Z,20.90
2023-05-05T17:34:43.030Z,20.00
2023-05-05T17:39:45.235Z,19.00
2023-05-05T17:44:47.785Z,18.30
2023-05-05T17:49:51.484Z,17.70
2023-05-05T17:54:53.657Z,17.40
2023-05-05T17:59:55.902Z,17.20
2023-05-05T18:04:57.996Z,17.20
2023-05-05T18:10:00.183Z,17.10
2023-05-05T18:15:03.333Z,17.10
2023-05-05T18:20:07.156Z,17.10
2023-05-05T18:25:10.220Z,17.10
2023-05-05T18:30:13.004Z,17.00
2023-05-05T18:35:15.234Z,16.90
2023-05-05T18:40:17.398Z,16.90
2023-05-05T18:45:19.633Z,16.70
2023-05-05T18:50:21.954Z,16.60
2023-05-05T18:55:24.127Z,16.60
2023-05-05T19:00:26.351Z,16.50
2023-05-05T19:05:28.445Z,16.50
2023-05-05T19:10:30.502Z,16.40
2023-05-05T19:15:32.792Z,16.30
2023-05-05T19:20:34.940Z,16.30
2023-05-05T19:25:37.077Z,16.20
2023-05-05T19:30:39.179Z,16.20
2023-05-05T19:35:42.108Z,16.10
2023-05-05T19:40:44.180Z,16.10
2023-05-05T19:45:46.282Z,16.10
2023-05-05T19:50:48.399Z,16.00
2023-05-05T19:55:50.665Z,15.90
2023-05-05T20:00:52.737Z,15.90
2023-05-05T20:05:54.779Z,15.80
2023-05-05T20:10:56.821Z,15.80
2023-05-05T20:15:58.944Z,15.80
2023-05-05T20:21:01.932Z,15.70
2023-05-05T20:26:04.263Z,15.60
2023-05-05T20:31:07.124Z,15.60
2023-05-05T20:36:09.489Z,15.50
2023-05-05T20:41:11.923Z,15.30
2023-05-05T20:46:14.232Z,15.20
2023-05-05T20:51:16.391Z,15.10
2023-05-05T20:56:19.643Z,15.10
2023-05-05T21:01:21.792Z,15.00
2023-05-05T21:06:24.366Z,14.90
2023-05-05T21:11:26.458Z,14.80
2023-05-05T21:16:28.563Z,14.70
2023-05-05T21:21:31.800Z,14.70
2023-05-05T21:26:33.931Z,14.60
2023-05-05T21:31:36.105Z,14.50
2023-05-05T21:36:38.685Z,14.40
2023-05-05T21:41:40.886Z,14.40
2023-05-05T21:46:43.192Z,14.30
2023-05-05T21:51:46.300Z,14.30
2023-05-05T21:56:48.414Z,14.40
2023-05-05T22:01:50.736Z,14.40
2023-05-05T22:06:52.781Z,14.30
2023-05-05T22:12:13.444Z,14.30
2023-05-05T22:17:15.533Z,14.30
2023-05-05T22:22:17.636Z,14.30
2023-05-05T22:27:19.643Z,14.30
2023-05-05T22:32:21.729Z,14.30
2023-05-05T22:37:23.892Z,14.30
2023-05-05T22:42:26.843Z,14.30
2023-05-05T22:47:29.070Z,14.20
2023-05-05T22:52:31.530Z,14.20
2023-05-05T22:57:36.577Z,14.10
2023-05-05T23:02:40.184Z,14.00
2023-05-05T23:07:42.244Z,14.00
2023-05-05T23:12:44.319Z,13.90
2023-05-05T23:17:47.090Z,13.90
2023-05-05T23:22:49.164Z,13.80
2023-05-05T23:27:51.347Z,13.80
2023-05-05T23:32:54.372Z,13.70
2023-05-05T23:37:56.471Z,13.60
2023-05-05T23:42:59.062Z,13.60
2023-05-05T23:48:01.780Z,13.60
2023-05-05T23:53:03.859Z,13.50
2023-05-05T23:58:05.879Z,13.50
